createdAt,value
2023-04-03T00:53:00.265Z,99230.85
2023-04-03T00:55:29.927Z,99233.59
2023-04-03T00:58:04.127Z,99230.48
2023-04-03T01:00:35.614Z,99229.18
2023-04-03T01:03:11.634Z,99230.97
2023-04-03T01:05:43.340Z,99230.23
2023-04-03T01:08:15.843Z,99222.48
2023-04-03T01:10:48.162Z,99224.54
2023-04-03T01:13:32.885Z,99224.20
2023-04-03T01:16:05.730Z,99222.02
2023-04-03T01:18:37.586Z,99218.47
2023-04-03T01:21:07.724Z,99218.07
2023-04-03T01:24:05.704Z,99219.50
2023-04-03T01:26:39.765Z,99217.10
2023-04-03T01:29:14.795Z,99212.81
2023-04-03T01:31:57.434Z,99214.30
2023-04-03T01:34:32.231Z,99215.83
2023-04-03T01:37:01.818Z,99215.02
2023-04-03T01:39:34.874Z,99216.59
2023-04-03T01:42:07.567Z,99216.28
2023-04-03T01:44:44.359Z,99218.14
2023-04-03T01:47:17.430Z,99218.76
2023-04-03T01:49:51.335Z,99220.60
2023-04-03T01:52:21.692Z,99220.78
2023-04-03T01:54:54.161Z,99218.70
2023-04-03T01:57:25.088Z,99221.42
2023-04-03T01:59:56.106Z,99220.02
2023-04-03T02:02:28.238Z,99220.82
2023-04-03T02:04:56.675Z,99215.26
2023-04-03T02:07:26.907Z,99218.96
2023-04-03T02:09:59.172Z,99217.02
2023-04-03T02:12:28.587Z,99213.56
2023-04-03T02:15:05.876Z,99213.46
2023-04-03T02:17:42.714Z,99215.48
2023-04-03T02:20:17.076Z,99216.14
2023-04-03T02:22:58.093Z,99215.24
2023-04-03T02:26:08.006Z,99211.14
2023-04-03T02:28:39.598Z,99215.98
2023-04-03T02:31:13.303Z,99214.54
2023-04-03T02:33:48.503Z,99215.23
2023-04-03T02:36:19.995Z,99214.09
2023-04-03T02:38:57.375Z,99216.81
2023-04-03T02:41:43.719Z,99215.34
2023-04-03T02:44:22.787Z,99216.89
2023-04-03T02:46:52.852Z,99215.03
2023-04-03T02:49:23.260Z,99212.95
2023-04-03T02:51:52.624Z,99213.34
2023-04-03T02:54:29.809Z,99211.37
2023-04-03T02:57:00.877Z,99212.50
2023-04-03T02:59:54.562Z,99211.28
2023-04-03T03:02:26.461Z,99214.37
2023-04-03T03:05:02.614Z,99211.70
2023-04-03T03:07:35.772Z,99216.10
2023-04-03T03:10:07.015Z,99211.40
2023-04-03T03:12:39.094Z,99217.41
2023-04-03T03:15:11.801Z,99212.04
2023-04-03T03:17:43.455Z,99212.86
2023-04-03T03:20:19.075Z,99213.40
2023-04-03T03:22:49.352Z,99210.86
2023-04-03T03:25:21.490Z,99211.75
2023-04-03T03:27:52.341Z,99210.36
2023-04-03T03:30:26.677Z,99215.63
2023-04-03T03:33:03.025Z,99213.69
2023-04-03T03:35:32.746Z,99211.20
2023-04-03T03:38:04.246Z,99212.23
2023-04-03T03:40:37.216Z,99209.09
2023-04-03T03:43:11.289Z,99211.77
2023-04-03T03:45:48.825Z,99210.58
2023-04-03T03:48:20.796Z,99213.23
2023-04-03T03:50:59.949Z,99213.92
2023-04-03T03:53:34.464Z,99215.64
2023-04-03T03:56:18.068Z,99216.25
2023-04-03T03:58:55.860Z,99220.26
2023-04-03T04:01:27.533Z,99217.95
2023-04-03T04:04:00.185Z,99218.65
2023-04-03T04:06:33.965Z,99215.48
2023-04-03T04:09:10.073Z,99218.72
2023-04-03T04:11:45.373Z,99220.05
2023-04-03T04:14:28.976Z,99217.99
2023-04-03T04:17:06.727Z,99226.36
2023-04-03T04:19:41.889Z,99222.50
2023-04-03T04:22:16.172Z,99222.77
2023-04-03T04:24:49.231Z,99222.58
2023-04-03T04:27:23.031Z,99224.30
2023-04-03T04:29:55.030Z,99225.30
2023-04-03T04:32:27.889Z,99228.61
2023-04-03T04:34:59.560Z,99225.81
2023-04-03T04:37:33.225Z,99228.23
2023-04-03T04:40:03.576Z,99228.01
2023-04-03T04:42:34.695Z,99224.67
2023-04-03T04:45:09.147Z,99226.50
2023-04-03T04:47:42.027Z,99229.97
2023-04-03T04:50:15.215Z,99229.26
2023-04-03T04:52:46.075Z,99229.77
2023-04-03T04:55:17.518Z,99228.05
2023-04-03T04:57:54.784Z,99231.92
2023-04-03T05:00:27.646Z,99229.28
2023-04-03T05:02:59.261Z,99232.02
2023-04-03T05:05:32.138Z,99228.84
2023-04-03T05:08:06.725Z,99229.73
2023-04-03T05:10:44.018Z,99229.83
2023-04-03T05:13:19.210Z,99226.34
2023-04-03T05:15:50.827Z,99227.31
2023-04-03T05:18:24.689Z,99226.07
2023-04-03T05:20:57.432Z,99229.23
2023-04-03T05:23:33.839Z,99231.37
2023-04-03T05:26:09.523Z,99227.89
2023-04-03T05:28:51.734Z,99238.50
2023-04-03T05:31:30.962Z,99236.60
2023-04-03T05:34:01.147Z,99239.13
2023-04-03T05:36:33.304Z,99237.56
2023-04-03T05:39:12.695Z,99237.14
2023-04-03T05:41:50.442Z,99230.92
2023-04-03T05:44:22.961Z,99233.27
2023-04-03T05:47:00.614Z,99234.08
2023-04-03T05:49:34.409Z,99236.33
2023-04-03T05:52:37.769Z,99238.15
2023-04-03T05:55:10.135Z,99243.13
2023-04-03T05:57:42.805Z,99246.48
2023-04-03T06:00:16.008Z,99246.99
2023-04-03T06:02:55.127Z,99250.30
2023-04-03T06:05:35.863Z,99252.23
2023-04-03T06:08:08.417Z,99256.46
2023-04-03T06:10:41.440Z,99252.55
2023-04-03T06:13:14.785Z,99251.30
2023-04-03T06:15:53.712Z,99252.73
2023-04-03T06:18:26.514Z,99255.05
2023-04-03T06:21:20.287Z,99262.27
2023-04-03T06:24:19.868Z,99261.88
2023-04-03T06:26:56.136Z,99266.11
2023-04-03T06:29:28.673Z,99257.58
2023-04-03T06:32:00.789Z,99262.15
2023-04-03T06:34:37.869Z,99254.53
2023-04-03T06:37:31.214Z,99256.73
2023-04-03T06:40:02.381Z,99252.71
2023-04-03T06:42:37.048Z,99257.14
2023-04-03T06:45:21.438Z,99261.38
2023-04-03T06:47:55.130Z,99265.88
2023-04-03T06:50:29.666Z,99266.39
2023-04-03T06:53:52.482Z,99269.52
2023-04-03T06:56:25.267Z,99272.50
2023-04-03T06:59:00.252Z,99274.77
2023-04-03T07:01:47.042Z,99275.04
2023-04-03T07:04:28.154Z,99276.00
2023-04-03T07:07:09.661Z,99279.30
2023-04-03T07:09:55.385Z,99277.58
2023-04-03T07:12:34.011Z,99279.42
2023-04-03T07:15:16.351Z,99280.98
2023-04-03T07:17:56.787Z,99276.09
2023-04-03T07:20:36.574Z,99279.48
2023-04-03T07:23:23.019Z,99281.68
2023-04-03T07:26:06.573Z,99280.77
2023-04-03T07:28:40.897Z,99285.73
2023-04-03T07:31:24.547Z,99285.61
2023-04-03T07:37:13.263Z,99282.52
2023-04-03T07:40:03.079Z,99284.05
2023-04-03T07:42:41.392Z,99279.06
2023-04-03T07:45:27.679Z,99286.60
2023-04-03T07:48:08.988Z,99288.78
2023-04-03T07:54:30.797Z,99294.14
2023-04-03T07:57:09.841Z,99290.67
2023-04-03T08:00:10.827Z,99297.64
2023-04-03T08:03:00.373Z,99296.89
2023-04-03T08:08:23.505Z,99297.46
2023-04-03T08:10:56.458Z,99301.94
2023-04-03T08:13:34.410Z,99305.32
2023-04-03T08:16:49.273Z,99309.42
2023-04-03T08:19:28.008Z,99309.71
2023-04-03T08:22:25.991Z,99314.70
2023-04-03T08:25:01.487Z,99314.75
2023-04-03T08:27:37.538Z,99320.92
2023-04-03T08:30:11.285Z,99325.42
2023-04-03T08:32:45.704Z,99324.13
2023-04-03T08:35:19.381Z,99327.16
2023-04-03T08:37:51.510Z,99330.02
2023-04-03T08:40:29.752Z,99331.33
2023-04-03T08:43:43.978Z,99335.28
2023-04-03T08:46:16.075Z,99339.48
2023-04-03T08:48:45.513Z,99337.84
2023-04-03T08:51:24.901Z,99344.94
2023-04-03T08:54:05.864Z,99341.46
2023-04-03T08:56:48.146Z,99346.38
2023-04-03T08:59:24.060Z,99347.46
2023-04-03T09:01:58.532Z,99346.90
2023-04-03T09:04:36.444Z,99349.84
2023-04-03T09:07:30.465Z,99351.94
2023-04-03T09:10:06.288Z,99353.20
2023-04-03T09:13:09.208Z,99352.62
2023-04-03T09:15:45.580Z,99355.08
2023-04-03T09:19:23.858Z,99355.20
2023-04-03T09:22:24.581Z,99359.55
2023-04-03T09:25:27.545Z,99363.67
2023-04-03T09:28:17.450Z,99366.58
2023-04-03T09:30:54.491Z,99370.85
2023-04-03T09:33:58.545Z,99375.48
2023-04-03T09:36:53.797Z,99377.80
2023-04-03T09:39:53.828Z,99379.46
2023-04-03T09:42:33.358Z,99379.83
2023-04-03T09:45:31.774Z,99385.11
2023-04-03T09:48:31.403Z,99385.17
2023-04-03T09:51:56.622Z,99391.81
2023-04-03T09:54:32.024Z,99398.45
2023-04-03T09:57:14.509Z,99395.75
2023-04-03T10:00:16.129Z,99399.86
2023-04-03T10:02:56.644Z,99402.39
2023-04-03T10:05:58.913Z,99397.92
2023-04-03T10:08:43.656Z,99402.05
2023-04-03T10:11:40.749Z,99406.84
2023-04-03T10:14:18.873Z,99408.15
2023-04-03T10:17:15.319Z,99407.77
2023-04-03T10:20:24.851Z,99414.73
2023-04-03T10:23:37.403Z,99416.75
2023-04-03T10:26:46.138Z,99423.98
2023-04-03T10:30:10.037Z,99429.27
2023-04-03T10:33:28.055Z,99434.63
2023-04-03T10:36:39.062Z,99437.69
2023-04-03T10:39:34.104Z,99437.71
2023-04-03T10:42:38.422Z,99440.88
2023-04-03T10:45:40.916Z,99443.11
2023-04-03T10:49:02.728Z,99448.25
2023-04-03T10:51:49.100Z,99453.80
2023-04-03T10:54:57.048Z,99449.81
2023-04-03T10:57:30.882Z,99456.34
2023-04-03T11:00:28.846Z,99454.50
2023-04-03T11:03:11.212Z,99452.16
2023-04-03T11:05:55.015Z,99456.02
2023-04-03T11:08:53.807Z,99458.02
2023-04-03T11:15:04.193Z,99463.77
2023-04-03T11:26:15.297Z,99466.30
2023-04-03T11:28:46.728Z,99472.75
2023-04-03T11:31:58.982Z,99469.59
2023-04-03T11:34:58.420Z,99474.79
2023-04-03T11:37:38.569Z,99475.70
2023-04-03T11:47:50.984Z,99488.15
2023-04-03T11:50:50.214Z,99489.59
2023-04-03T11:54:17.676Z,99490.58
2023-04-03T11:57:03.646Z,99493.98
2023-04-03T11:59:47.056Z,99495.75
2023-04-03T12:03:18.084Z,99498.75
2023-04-03T12:06:41.941Z,99504.33
2023-04-03T12:09:36.974Z,99507.73
2023-04-03T12:12:44.190Z,99506.61
2023-04-03T12:15:50.531Z,99507.86
2023-04-03T12:19:18.024Z,99511.38
2023-04-03T12:22:14.581Z,99514.35
2023-04-03T12:24:51.359Z,99513.05
2023-04-03T12:27:45.232Z,99510.28
2023-04-03T12:30:42.192Z,99514.77
2023-04-03T12:34:03.025Z,99514.05
2023-04-03T12:37:30.932Z,99499.71
2023-04-03T12:40:21.982Z,99509.16
2023-04-03T12:43:19.631Z,99508.98
2023-04-03T12:46:18.623Z,99509.15
2023-04-03T12:48:57.241Z,99513.10
2023-04-03T12:51:44.748Z,99511.89
2023-04-03T12:54:43.848Z,99513.40
2023-04-03T12:57:30.119Z,99515.60
2023-04-03T13:00:35.045Z,99520.45
2023-04-03T13:03:55.857Z,99520.73
2023-04-03T13:06:43.863Z,99529.94
2023-04-03T13:11:12.191Z,99530.40
2023-04-03T13:14:05.893Z,99534.70
2023-04-03T13:16:54.682Z,99537.41
2023-04-03T13:19:33.083Z,99538.75
2023-04-03T13:22:33.191Z,99543.49
2023-04-03T13:25:43.831Z,99538.31
2023-04-03T13:28:37.065Z,99544.63
2023-04-03T13:40:57.903Z,99540.65
2023-04-03T13:43:45.931Z,99547.09
2023-04-03T13:46:20.379Z,99547.95
2023-04-03T13:48:54.185Z,99550.64
2023-04-03T13:51:29.762Z,99552.60
2023-04-03T13:54:36.074Z,99556.63
2023-04-03T13:57:08.595Z,99559.89
2023-04-03T13:59:40.336Z,99563.04
2023-04-03T14:02:20.852Z,99564.15
2023-04-03T14:05:02.630Z,99563.16
2023-04-03T14:07:39.536Z,99569.91
2023-04-03T14:10:21.228Z,99577.85
2023-04-03T14:12:58.553Z,99577.28
2023-04-03T14:15:32.076Z,99581.59
2023-04-03T14:18:04.454Z,99583.79
2023-04-03T14:20:42.246Z,99585.21
2023-04-03T14:23:21.080Z,99585.14
2023-04-03T14:26:18.739Z,99586.17
2023-04-03T14:28:54.760Z,99585.69
2023-04-03T14:31:37.384Z,99589.33
2023-04-03T14:34:16.973Z,99591.89
2023-04-03T14:40:23.127Z,99594.12
2023-04-03T14:43:03.030Z,99598.05
2023-04-03T14:45:31.721Z,99607.48
2023-04-03T14:48:32.499Z,99609.52
2023-04-03T14:51:06.795Z,99615.05
2023-04-03T14:54:01.766Z,99613.40
2023-04-03T14:56:33.878Z,99616.72
2023-04-03T14:59:08.121Z,99622.71
2023-04-03T15:01:38.228Z,99626.88
2023-04-03T15:04:29.308Z,99626.10
2023-04-03T15:08:01.615Z,99633.02
2023-04-03T15:10:35.481Z,99629.96
2023-04-03T15:13:40.669Z,99632.66
2023-04-03T15:16:19.535Z,99626.47
2023-04-03T15:19:06.540Z,99632.84
2023-04-03T15:21:46.527Z,99634.83
2023-04-03T15:24:22.711Z,99639.08
2023-04-03T15:26:58.855Z,99637.09
2023-04-03T15:29:50.388Z,99639.86
2023-04-03T15:32:41.370Z,99639.23
2023-04-03T15:35:19.431Z,99640.79
2023-04-03T15:38:08.396Z,99642.80
2023-04-03T15:45:07.180Z,99654.00
2023-04-03T15:53:21.740Z,99649.77
2023-04-03T15:57:51.344Z,99657.37
2023-04-03T16:01:20.297Z,99653.48
2023-04-03T16:05:20.744Z,99658.52
2023-04-03T16:08:10.626Z,99657.55
2023-04-03T16:10:59.051Z,99657.65
2023-04-03T16:13:36.087Z,99661.34
2023-04-03T16:25:47.480Z,99677.77
2023-04-03T16:28:34.436Z,99683.25
2023-04-03T16:31:12.324Z,99685.23
2023-04-03T16:33:59.827Z,99682.94
2023-04-03T16:36:48.720Z,99687.02
2023-04-03T16:39:23.684Z,99692.42
2023-04-03T16:41:59.264Z,99693.38
2023-04-03T16:44:37.478Z,99697.03
2023-04-03T16:59:02.158Z,99716.74
2023-04-03T17:01:49.862Z,99723.82
2023-04-03T17:04:28.484Z,99728.04
2023-04-03T17:07:15.848Z,99738.69
2023-04-03T17:13:19.247Z,99747.59
2023-04-03T17:16:18.489Z,99752.50
2023-04-03T17:18:55.130Z,99761.27
2023-04-03T17:22:07.580Z,99762.87
2023-04-03T17:25:01.962Z,99763.61
2023-04-03T17:32:27.402Z,99766.29
2023-04-03T17:35:01.854Z,99775.23
2023-04-03T17:38:04.159Z,99783.31
2023-04-03T17:40:45.947Z,99789.65
2023-04-03T17:43:34.549Z,99797.80
2023-04-03T17:46:18.546Z,99797.49
2023-04-03T17:49:19.608Z,99796.63
2023-04-03T17:52:06.176Z,99799.50
2023-04-03T17:55:29.101Z,99803.15
2023-04-03T17:58:42.629Z,99804.88
2023-04-03T18:02:01.913Z,99807.92
2023-04-03T18:08:42.687Z,99813.30
2023-04-03T18:11:22.278Z,99813.15
2023-04-03T18:14:13.160Z,99808.40
2023-04-03T18:16:50.640Z,99809.80
2023-04-03T18:20:23.655Z,99809.95
2023-04-03T18:23:00.737Z,99820.41
2023-04-03T18:26:20.801Z,99821.05
2023-04-03T18:29:21.341Z,99827.48
2023-04-03T18:32:18.557Z,99828.58
2023-04-03T18:35:15.728Z,99836.45
2023-04-03T18:41:20.618Z,99839.15
2023-04-03T18:44:33.031Z,99849.33
2023-04-03T18:47:14.942Z,99853.45
2023-04-03T18:49:50.127Z,99852.92
2023-04-03T18:52:38.053Z,99856.05
2023-04-03T18:56:01.947Z,99854.27
2023-04-03T18:58:57.830Z,99854.66
2023-04-03T19:01:40.896Z,99862.80
2023-04-03T19:04:18.299Z,99873.55
2023-04-03T19:06:52.898Z,99873.81
2023-04-03T19:09:38.839Z,99877.23
2023-04-03T19:12:31.856Z,99868.75
2023-04-03T19:15:03.504Z,99875.15
2023-04-03T19:17:47.135Z,99877.86
2023-04-03T19:20:26.798Z,99886.94
2023-04-03T19:23:02.589Z,99894.42
2023-04-03T19:25:40.197Z,99898.23
2023-04-03T19:29:07.816Z,99913.09
2023-04-03T19:32:07.561Z,99917.66
2023-04-03T19:35:27.235Z,99918.98
2023-04-03T19:38:00.887Z,99924.66
2023-04-03T19:40:34.245Z,99930.70
2023-04-03T19:43:31.596Z,99939.89
2023-04-03T19:46:26.586Z,99950.61
2023-04-03T19:48:58.472Z,99959.85
2023-04-03T19:51:58.471Z,99959.84
2023-04-03T19:54:36.012Z,99963.40
2023-04-03T19:57:27.618Z,99961.60
2023-04-03T20:00:01.451Z,99961.73
2023-04-03T20:02:48.773Z,99968.59
2023-04-03T20:05:54.200Z,99971.99
2023-04-03T20:08:28.768Z,99965.41
2023-04-03T20:11:08.849Z,99964.98
2023-04-03T20:16:43.291Z,99984.65
2023-04-03T20:22:00.743Z,99988.30
2023-04-03T20:24:32.685Z,99999.65
2023-04-03T20:27:01.580Z,99992.79
2023-04-03T20:30:03.595Z,99980.73
2023-04-03T20:39:17.435Z,99984.08
2023-04-03T20:41:47.638Z,99980.23
2023-04-03T20:44:24.993Z,99983.17
2023-04-03T20:46:57.730Z,99982.73
2023-04-03T20:49:27.677Z,99987.17
2023-04-03T20:58:30.052Z,99988.70
2023-04-03T21:01:08.497Z,99996.98
2023-04-03T21:03:43.449Z,99989.92
2023-04-03T21:06:53.133Z,99978.23
2023-04-03T21:10:06.408Z,99987.62
2023-04-03T21:13:17.152Z,99984.67
2023-04-03T21:16:07.028Z,99983.85
2023-04-03T21:19:15.480Z,99984.08
2023-04-03T21:21:49.801Z,99980.65
2023-04-03T21:24:20.148Z,99980.42
2023-04-03T21:26:51.226Z,99983.64
2023-04-03T21:29:22.488Z,99990.23
2023-04-03T21:32:08.282Z,99990.52
2023-04-03T21:34:47.304Z,99987.16
2023-04-03T21:37:31.354Z,99988.98
2023-04-03T21:40:06.321Z,99984.95
2023-04-03T21:42:42.276Z,99982.80
2023-04-03T21:45:15.434Z,99989.52
2023-04-03T21:47:50.742Z,99993.60
2023-04-03T21:50:21.645Z,99999.92
2023-04-03T21:52:54.682Z,100003.61
2023-04-03T21:55:27.420Z,100014.23
2023-04-03T21:57:59.133Z,100007.04
2023-04-03T22:00:31.743Z,100008.44
2023-04-03T22:03:10.139Z,100015.14
2023-04-03T22:05:49.105Z,100017.66
2023-04-03T22:08:22.085Z,100022.30
2023-04-03T22:10:55.483Z,100019.77
2023-04-03T22:13:26.013Z,100020.50
2023-04-03T22:15:59.892Z,100025.75
2023-04-03T22:18:31.924Z,100020.17
2023-04-03T22:21:03.492Z,100027.14
2023-04-03T22:23:33.236Z,100027.25
2023-04-03T22:26:06.934Z,100035.20
2023-04-03T22:28:45.251Z,100034.81
2023-04-03T22:31:20.867Z,100042.73
2023-04-03T22:33:50.839Z,100048.17
2023-04-03T22:36:27.027Z,100041.06
2023-04-03T22:39:02.185Z,100042.02
2023-04-03T22:41:33.830Z,100055.65
2023-04-03T22:44:11.813Z,100042.13
2023-04-03T22:46:55.545Z,100045.08
2023-04-03T22:49:25.347Z,100050.11
2023-04-03T22:52:00.459Z,100054.66
2023-04-03T22:54:34.511Z,100048.06
2023-04-03T22:57:02.501Z,100042.99
2023-04-03T22:59:36.765Z,100044.74
2023-04-03T23:02:21.136Z,100053.17
2023-04-03T23:04:51.095Z,100056.38
2023-04-03T23:07:19.458Z,100061.80
2023-04-03T23:09:53.535Z,100055.77
2023-04-03T23:12:25.774Z,100060.80
2023-04-03T23:15:02.245Z,100060.01
2023-04-03T23:17:41.972Z,100063.70
2023-04-03T23:20:13.355Z,100066.60
2023-04-03T23:22:45.057Z,100065.64
2023-04-03T23:25:13.429Z,100078.41
2023-04-03T23:27:50.418Z,100070.48
2023-04-03T23:30:23.646Z,100065.79
2023-04-03T23:32:54.783Z,100066.44
2023-04-03T23:35:24.559Z,100056.76
2023-04-03T23:38:02.785Z,100064.46
2023-04-03T23:40:34.179Z,100073.66
2023-04-03T23:43:02.175Z,100073.59
2023-04-03T23:45:33.931Z,100069.05
2023-04-03T23:48:03.297Z,100069.39
2023-04-03T23:50:38.599Z,100068.98
2023-04-03T23:53:08.226Z,100064.39
2023-04-03T23:55:42.501Z,100068.66
2023-04-03T23:58:13.639Z,100073.02
